createdAt,value
2022-12-31T00:00:07.858Z,25.65
2022-12-31T00:02:35.085Z,28.83
2022-12-31T00:05:02.213Z,22.33
2022-12-31T00:07:29.014Z,25.63
2022-12-31T00:09:55.794Z,29.35
2022-12-31T00:12:22.608Z,25.38
2022-12-31T00:14:49.353Z,22.73
2022-12-31T00:17:16.133Z,22.00
2022-12-31T00:19:42.997Z,27.10
2022-12-31T00:22:10.123Z,26.95
2022-12-31T00:24:36.957Z,25.55
2022-12-31T00:27:03.835Z,28.25
2022-12-31T00:29:30.628Z,25.58
2022-12-31T00:31:57.389Z,27.63
2022-12-31T00:34:24.211Z,23.52
2022-12-31T00:36:51.129Z,30.35
2022-12-31T00:39:17.951Z,22.30
2022-12-31T00:41:44.951Z,26.77
2022-12-31T00:44:12.710Z,24.47
2022-12-31T00:49:05.537Z,27.30
2022-12-31T00:51:32.291Z,28.58
2022-12-31T00:53:59.176Z,23.83
2022-12-31T00:56:27.680Z,24.65
2022-12-31T00:58:54.617Z,27.70
2022-12-31T01:01:29.531Z,21.85
2022-12-31T01:03:59.912Z,24.88
2022-12-31T01:06:26.692Z,25.27
2022-12-31T01:08:54.093Z,26.92
2022-12-31T01:11:24.088Z,21.75
2022-12-31T01:14:11.160Z,26.08
2022-12-31T01:16:39.109Z,21.92
2022-12-31T01:19:08.331Z,27.10
2022-12-31T01:21:35.794Z,23.92
2022-12-31T01:24:02.607Z,26.02
2022-12-31T01:26:29.592Z,27.95
2022-12-31T01:28:56.407Z,22.95
2022-12-31T01:31:23.762Z,24.70
2022-12-31T01:33:51.393Z,22.85
2022-12-31T01:36:25.321Z,22.38
2022-12-31T01:38:53.525Z,25.45
2022-12-31T01:41:22.467Z,23.48
2022-12-31T01:43:56.420Z,27.63
2022-12-31T01:46:46.630Z,27.80
2022-12-31T01:49:20.246Z,24.58
2022-12-31T01:51:51.026Z,25.02
2022-12-31T01:54:18.610Z,23.00
2022-12-31T01:56:45.788Z,25.90
2022-12-31T01:59:12.688Z,25.80
2022-12-31T02:01:39.650Z,22.23
2022-12-31T02:04:08.952Z,24.33
2022-12-31T02:06:41.903Z,25.02
2022-12-31T02:09:09.054Z,24.20
2022-12-31T02:11:38.081Z,24.15
2022-12-31T02:14:09.259Z,29.10
2022-12-31T02:16:47.874Z,25.58
2022-12-31T02:19:38.951Z,26.23
2022-12-31T02:22:05.717Z,24.87
2022-12-31T02:25:09.913Z,26.40
2022-12-31T02:28:02.465Z,22.90
2022-12-31T02:30:31.307Z,27.00
2022-12-31T02:33:35.412Z,22.75
2022-12-31T02:36:05.173Z,22.17
2022-12-31T02:38:37.388Z,27.75
2022-12-31T02:41:04.273Z,21.98
2022-12-31T02:43:31.088Z,21.17
2022-12-31T02:46:19.690Z,19.38
2022-12-31T02:49:12.211Z,21.20
2022-12-31T02:51:50.872Z,19.85
2022-12-31T02:54:20.785Z,20.70
2022-12-31T02:57:09.436Z,24.38
2022-12-31T03:00:08.651Z,19.15
2022-12-31T03:02:35.688Z,18.70
2022-12-31T03:05:02.843Z,20.27
2022-12-31T03:07:33.027Z,19.13
2022-12-31T03:10:01.190Z,19.08
2022-12-31T03:12:48.501Z,19.42
2022-12-31T03:15:34.351Z,21.97
2022-12-31T03:18:39.330Z,19.38
2022-12-31T03:21:32.192Z,20.27
2022-12-31T03:24:17.312Z,19.85
2022-12-31T03:26:44.127Z,18.63
2022-12-31T03:29:10.888Z,23.03
2022-12-31T03:31:37.711Z,18.05
2022-12-31T03:34:04.538Z,18.48
2022-12-31T03:36:31.394Z,22.08
2022-12-31T03:38:58.214Z,20.58
2022-12-31T03:41:25.007Z,21.80
2022-12-31T03:43:51.810Z,19.08
2022-12-31T03:46:18.629Z,17.90
2022-12-31T03:48:45.450Z,18.65
2022-12-31T03:51:12.287Z,16.50
2022-12-31T03:53:39.113Z,15.10
2022-12-31T03:56:06.079Z,18.42
2022-12-31T03:58:32.907Z,18.38
2022-12-31T04:00:59.709Z,18.10
2022-12-31T04:03:26.657Z,17.50
2022-12-31T04:05:54.933Z,16.40
2022-12-31T04:08:21.788Z,15.68
2022-12-31T04:10:48.577Z,17.25
2022-12-31T04:13:15.357Z,17.67
2022-12-31T04:15:42.175Z,16.15
2022-12-31T04:18:08.975Z,17.97
2022-12-31T04:20:35.752Z,15.43
2022-12-31T04:23:02.533Z,14.15
2022-12-31T04:25:29.308Z,16.60
2022-12-31T04:27:56.092Z,17.63
2022-12-31T04:30:22.972Z,15.80
2022-12-31T04:32:49.748Z,16.25
2022-12-31T04:35:16.680Z,17.92
2022-12-31T04:37:43.449Z,15.65
2022-12-31T04:40:10.660Z,19.70
2022-12-31T04:42:37.466Z,15.00
2022-12-31T04:45:04.836Z,14.55
2022-12-31T04:47:31.609Z,15.13
2022-12-31T04:49:58.377Z,15.63
2022-12-31T04:52:25.182Z,15.88
2022-12-31T04:54:51.977Z,18.57
2022-12-31T04:57:18.750Z,15.55
2022-12-31T04:59:45.560Z,16.48
2022-12-31T05:02:12.565Z,17.73
2022-12-31T05:04:39.594Z,15.82
2022-12-31T05:07:06.446Z,19.80
2022-12-31T05:09:33.213Z,18.20
2022-12-31T05:12:00.139Z,17.17
2022-12-31T05:14:26.952Z,19.10
2022-12-31T05:16:53.880Z,15.80
2022-12-31T05:19:20.810Z,15.87
2022-12-31T05:22:07.510Z,18.50
2022-12-31T05:24:34.309Z,19.25
2022-12-31T05:27:01.076Z,19.23
2022-12-31T05:29:27.868Z,17.40
2022-12-31T05:31:54.689Z,18.17
2022-12-31T05:34:21.472Z,18.95
2022-12-31T05:36:48.249Z,19.40
2022-12-31T05:39:15.134Z,19.30
2022-12-31T05:41:41.892Z,19.38
2022-12-31T05:44:10.151Z,20.07
2022-12-31T05:46:36.933Z,20.05
2022-12-31T05:49:03.670Z,21.50
2022-12-31T05:51:30.467Z,21.52
2022-12-31T05:53:57.250Z,21.15
2022-12-31T05:56:24.068Z,19.10
2022-12-31T05:58:50.849Z,18.75
2022-12-31T06:01:17.693Z,20.50
2022-12-31T06:03:44.538Z,18.75
2022-12-31T06:06:11.371Z,17.88
2022-12-31T06:08:38.128Z,19.23
2022-12-31T06:11:05.109Z,19.27
2022-12-31T06:13:31.869Z,18.30
2022-12-31T06:15:58.853Z,18.23
2022-12-31T06:18:25.690Z,18.67
2022-12-31T06:20:52.690Z,17.70
2022-12-31T06:23:19.457Z,18.10
2022-12-31T06:25:46.228Z,19.80
2022-12-31T06:28:19.706Z,20.02
2022-12-31T06:30:47.452Z,19.42
2022-12-31T06:33:14.372Z,18.13
2022-12-31T06:35:41.207Z,20.30
2022-12-31T06:38:08.072Z,18.25
2022-12-31T06:40:37.646Z,20.05
2022-12-31T06:43:04.437Z,19.30
2022-12-31T06:45:31.249Z,18.43
2022-12-31T06:47:58.044Z,16.92
2022-12-31T06:50:24.825Z,17.70
2022-12-31T06:52:51.681Z,17.25
2022-12-31T06:55:18.757Z,16.13
2022-12-31T06:57:45.832Z,16.10
2022-12-31T07:00:13.367Z,18.80
2022-12-31T07:03:05.848Z,18.33
2022-12-31T07:05:51.118Z,18.20
2022-12-31T07:08:42.408Z,17.67
2022-12-31T07:11:19.634Z,15.50
2022-12-31T07:14:03.835Z,15.93
2022-12-31T07:16:48.610Z,18.67
2022-12-31T07:19:27.251Z,15.52
2022-12-31T07:21:54.470Z,16.15
2022-12-31T07:24:21.670Z,16.33
2022-12-31T07:26:57.010Z,18.48
2022-12-31T07:30:01.147Z,16.23
2022-12-31T07:32:52.377Z,17.23
2022-12-31T07:35:43.650Z,15.63
2022-12-31T07:38:42.769Z,15.87
2022-12-31T07:41:31.230Z,17.08
2022-12-31T07:44:08.607Z,16.77
2022-12-31T07:46:50.578Z,14.32
2022-12-31T07:49:17.735Z,17.35
2022-12-31T07:51:44.683Z,15.50
2022-12-31T07:54:14.083Z,15.48
2022-12-31T07:56:41.806Z,15.98
2022-12-31T07:59:36.361Z,14.50
2022-12-31T08:02:33.974Z,13.60
2022-12-31T08:05:05.722Z,14.73
2022-12-31T08:08:17.508Z,15.82
2022-12-31T08:11:07.171Z,13.27
2022-12-31T08:13:34.131Z,12.10
2022-12-31T08:16:02.036Z,12.52
2022-12-31T08:18:29.116Z,14.37
2022-12-31T08:21:03.470Z,15.57
2022-12-31T08:23:40.354Z,14.30
2022-12-31T08:26:30.269Z,15.00
2022-12-31T08:29:18.130Z,12.20
2022-12-31T08:32:17.726Z,16.27
2022-12-31T08:35:09.148Z,12.48
2022-12-31T08:37:41.956Z,12.95
2022-12-31T08:40:31.750Z,13.18
2022-12-31T08:43:26.176Z,13.80
2022-12-31T08:45:53.323Z,11.67
2022-12-31T08:48:30.054Z,11.77
2022-12-31T08:50:57.529Z,12.48
2022-12-31T08:53:24.672Z,13.10
2022-12-31T08:55:56.972Z,12.75
2022-12-31T08:58:45.290Z,12.30
2022-12-31T09:01:12.295Z,12.07
2022-12-31T09:03:55.829Z,14.48
2022-12-31T09:07:01.769Z,11.35
2022-12-31T09:10:03.012Z,11.13
2022-12-31T09:12:59.110Z,14.33
2022-12-31T09:15:45.830Z,12.90
2022-12-31T09:18:13.049Z,11.25
2022-12-31T09:20:43.367Z,11.32
2022-12-31T09:23:12.577Z,11.43
2022-12-31T09:25:45.754Z,12.63
2022-12-31T09:28:21.571Z,13.98
2022-12-31T09:30:58.915Z,12.50
2022-12-31T09:33:35.571Z,15.82
2022-12-31T09:36:05.856Z,14.60
2022-12-31T09:38:37.935Z,13.07
2022-12-31T09:41:17.469Z,13.73
2022-12-31T09:44:02.677Z,11.90
2022-12-31T09:47:23.847Z,13.88
2022-12-31T09:50:02.651Z,14.93
2022-12-31T09:52:54.248Z,11.90
2022-12-31T09:55:46.197Z,13.27
2022-12-31T09:58:17.076Z,11.93
2022-12-31T10:00:50.489Z,11.93
2022-12-31T10:03:35.952Z,11.63
2022-12-31T10:06:25.974Z,12.23
2022-12-31T10:09:11.611Z,13.93
2022-12-31T10:11:40.911Z,11.82
2022-12-31T10:14:47.555Z,12.65
2022-12-31T10:17:30.869Z,12.68
2022-12-31T10:20:05.992Z,13.03
2022-12-31T10:22:51.566Z,10.90
2022-12-31T10:25:38.476Z,13.35
2022-12-31T10:28:29.091Z,12.93
2022-12-31T10:31:08.940Z,11.90
2022-12-31T10:33:55.634Z,11.63
2022-12-31T10:36:59.950Z,11.10
2022-12-31T10:39:42.740Z,12.55
2022-12-31T10:42:31.050Z,13.70
2022-12-31T10:45:34.939Z,11.90
2022-12-31T10:48:26.052Z,11.37
2022-12-31T10:51:19.317Z,12.10
2022-12-31T10:54:12.396Z,12.20
2022-12-31T10:57:01.236Z,11.65
2022-12-31T10:59:46.829Z,11.15
2022-12-31T11:02:35.555Z,13.87
2022-12-31T11:05:39.570Z,14.48
2022-12-31T11:08:40.329Z,13.45
2022-12-31T11:11:31.562Z,12.80
2022-12-31T11:14:34.018Z,12.88
2022-12-31T11:17:12.831Z,12.57
2022-12-31T11:20:10.820Z,12.38
2022-12-31T11:23:16.169Z,12.75
2022-12-31T11:26:30.908Z,16.48
2022-12-31T11:29:03.885Z,12.30
2022-12-31T11:32:06.455Z,13.37
2022-12-31T11:34:58.155Z,14.38
2022-12-31T11:37:38.238Z,13.13
2022-12-31T11:40:42.247Z,14.38
2022-12-31T11:43:30.846Z,16.00
2022-12-31T11:46:32.856Z,15.70
2022-12-31T11:49:37.396Z,19.45
2022-12-31T11:52:16.015Z,14.38
2022-12-31T11:55:10.157Z,15.63
2022-12-31T11:57:38.128Z,16.63
2022-12-31T12:00:20.920Z,15.43
2022-12-31T12:02:51.446Z,15.30
2022-12-31T12:05:20.475Z,13.25
2022-12-31T12:07:48.378Z,14.60
2022-12-31T12:10:35.718Z,14.10
2022-12-31T12:13:27.985Z,14.27
2022-12-31T12:15:56.404Z,14.00
2022-12-31T12:18:47.191Z,15.35
2022-12-31T12:21:18.907Z,11.95
2022-12-31T12:24:07.031Z,13.00
2022-12-31T12:26:41.587Z,13.33
2022-12-31T12:29:12.973Z,13.50
2022-12-31T12:31:39.828Z,12.20
2022-12-31T12:34:07.052Z,12.73
2022-12-31T12:36:34.148Z,12.13
2022-12-31T12:39:02.996Z,12.43
2022-12-31T12:41:29.873Z,13.13
2022-12-31T12:44:07.290Z,11.68
2022-12-31T12:46:48.587Z,11.98
2022-12-31T12:49:30.015Z,13.10
2022-12-31T12:52:18.402Z,12.43
2022-12-31T12:54:48.164Z,11.07
2022-12-31T12:57:20.696Z,12.40
2022-12-31T13:00:16.650Z,12.10
2022-12-31T13:03:11.310Z,11.82
2022-12-31T13:06:03.026Z,13.93
2022-12-31T13:08:51.332Z,11.93
2022-12-31T13:11:39.848Z,13.88
2022-12-31T13:14:43.845Z,11.48
2022-12-31T13:17:32.413Z,13.35
2022-12-31T13:20:20.107Z,13.53
2022-12-31T13:22:52.308Z,14.35
2022-12-31T13:25:37.069Z,11.70
2022-12-31T13:28:05.637Z,15.02
2022-12-31T13:30:35.443Z,14.77
2022-12-31T13:33:07.852Z,12.50
2022-12-31T13:35:43.590Z,13.05
2022-12-31T13:38:34.989Z,13.18
2022-12-31T13:41:23.953Z,12.77
2022-12-31T13:44:13.717Z,12.75
2022-12-31T13:46:40.486Z,13.70
2022-12-31T13:49:37.539Z,13.02
2022-12-31T13:52:18.208Z,12.25
2022-12-31T13:55:06.193Z,13.52
2022-12-31T13:57:41.489Z,13.35
2022-12-31T14:00:28.754Z,13.47
2022-12-31T14:03:01.464Z,12.10
2022-12-31T14:05:37.933Z,13.55
2022-12-31T14:08:05.746Z,15.65
2022-12-31T14:10:51.159Z,14.23
2022-12-31T14:13:34.964Z,15.63
2022-12-31T14:16:04.820Z,12.88
2022-12-31T14:18:39.611Z,14.15
2022-12-31T14:21:14.151Z,13.75
2022-12-31T14:23:56.508Z,12.95
2022-12-31T14:26:46.952Z,12.77
2022-12-31T14:29:42.330Z,12.98
2022-12-31T14:32:12.231Z,15.23
2022-12-31T14:35:16.231Z,13.02
2022-12-31T14:37:47.105Z,12.65
2022-12-31T14:40:51.393Z,12.57
2022-12-31T14:43:42.972Z,11.10
2022-12-31T14:46:30.434Z,12.35
2022-12-31T14:49:18.950Z,11.90
2022-12-31T14:51:45.726Z,12.45
2022-12-31T14:54:29.525Z,12.83
2022-12-31T14:56:56.286Z,12.35
2022-12-31T14:59:34.500Z,12.00
2022-12-31T15:02:04.428Z,11.20
2022-12-31T15:04:51.071Z,13.25
2022-12-31T15:07:56.970Z,12.57
2022-12-31T15:11:01.931Z,11.73
2022-12-31T15:13:54.238Z,12.95
2022-12-31T15:16:26.929Z,11.23
2022-12-31T15:19:30.910Z,11.20
2022-12-31T15:22:04.373Z,12.37
2022-12-31T15:24:31.295Z,11.27
2022-12-31T15:27:00.016Z,12.57
2022-12-31T15:29:45.608Z,13.13
2022-12-31T15:32:20.224Z,12.00
2022-12-31T15:34:47.035Z,12.20
2022-12-31T15:37:33.687Z,13.50
2022-12-31T15:40:19.974Z,13.65
2022-12-31T15:43:08.171Z,11.95
2022-12-31T15:45:38.047Z,12.02
2022-12-31T15:48:32.470Z,11.83
2022-12-31T15:51:00.483Z,13.73
2022-12-31T15:53:33.828Z,13.18
2022-12-31T15:56:00.976Z,13.90
2022-12-31T15:58:30.504Z,14.45
2022-12-31T16:01:17.788Z,14.47
2022-12-31T16:03:50.174Z,13.25
2022-12-31T16:06:16.989Z,15.27
2022-12-31T16:08:45.157Z,13.65
2022-12-31T16:11:12.039Z,14.90
2022-12-31T16:13:44.376Z,14.07
2022-12-31T16:16:28.163Z,14.10
2022-12-31T16:18:55.532Z,14.30
2022-12-31T16:21:35.945Z,13.07
2022-12-31T16:24:07.392Z,12.05
2022-12-31T16:26:50.289Z,14.10
2022-12-31T16:29:17.851Z,12.48
2022-12-31T16:31:45.108Z,15.20
2022-12-31T16:34:22.056Z,14.90
2022-12-31T16:36:59.418Z,14.70
2022-12-31T16:39:27.394Z,14.10
2022-12-31T16:42:07.691Z,16.77
2022-12-31T16:44:34.660Z,13.73
2022-12-31T16:47:01.940Z,14.63
2022-12-31T16:49:30.153Z,13.73
2022-12-31T16:52:01.279Z,13.90
2022-12-31T16:54:35.874Z,10.82
2022-12-31T16:57:02.917Z,13.00
2022-12-31T16:59:44.411Z,12.23
2022-12-31T17:02:34.847Z,13.60
2022-12-31T17:05:01.770Z,11.80
2022-12-31T17:07:31.487Z,9.77
2022-12-31T17:10:09.371Z,11.27
2022-12-31T17:13:17.076Z,10.77
2022-12-31T17:15:48.725Z,11.50
2022-12-31T17:18:20.093Z,11.03
2022-12-31T17:20:47.053Z,9.77
2022-12-31T17:23:27.080Z,9.80
2022-12-31T17:26:07.789Z,12.65
2022-12-31T17:28:45.396Z,8.35
2022-12-31T17:31:43.331Z,8.87
2022-12-31T17:34:13.269Z,7.90
2022-12-31T17:36:58.440Z,8.50
2022-12-31T17:39:25.901Z,9.20
2022-12-31T17:41:55.432Z,8.48
2022-12-31T17:44:24.136Z,9.77
2022-12-31T17:46:51.008Z,9.85
2022-12-31T17:49:19.329Z,8.82
2022-12-31T17:51:47.924Z,8.50
2022-12-31T17:54:15.591Z,13.68
2022-12-31T17:56:42.465Z,12.40
2022-12-31T17:59:11.028Z,12.05
2022-12-31T18:01:37.977Z,12.18
2022-12-31T18:04:09.169Z,12.25
2022-12-31T18:06:35.978Z,10.20
2022-12-31T18:09:02.748Z,11.73
2022-12-31T18:11:29.591Z,8.85
2022-12-31T18:13:56.355Z,10.40
2022-12-31T18:16:23.242Z,8.90
2022-12-31T18:18:50.149Z,8.10
2022-12-31T18:21:36.216Z,11.20
2022-12-31T18:26:29.280Z,7.25
2022-12-31T18:29:00.393Z,8.27
2022-12-31T18:31:28.603Z,7.15
2022-12-31T18:33:56.232Z,7.73
2022-12-31T18:36:23.672Z,6.25
2022-12-31T18:38:50.555Z,8.45
2022-12-31T18:41:24.752Z,7.35
2022-12-31T18:43:51.618Z,8.95
2022-12-31T18:46:19.761Z,8.37
2022-12-31T18:48:46.728Z,9.57
2022-12-31T18:51:18.379Z,8.63
2022-12-31T18:53:45.248Z,8.73
2022-12-31T18:56:19.310Z,9.40
2022-12-31T18:58:46.151Z,8.73
2022-12-31T19:01:35.530Z,8.73
2022-12-31T19:04:12.564Z,8.40
2022-12-31T19:06:39.365Z,10.32
2022-12-31T19:09:13.250Z,9.10
2022-12-31T19:11:52.911Z,9.90
2022-12-31T19:14:23.114Z,9.00
2022-12-31T19:16:50.700Z,8.57
2022-12-31T19:19:17.753Z,8.43
2022-12-31T19:21:44.733Z,10.02
2022-12-31T19:24:21.373Z,8.43
2022-12-31T19:26:48.249Z,12.13
2022-12-31T19:29:19.451Z,9.25
2022-12-31T19:31:46.458Z,10.15
2022-12-31T19:34:13.292Z,7.85
2022-12-31T19:36:44.153Z,8.10
2022-12-31T19:39:15.195Z,7.72
2022-12-31T19:41:43.249Z,8.68
2022-12-31T19:44:19.509Z,8.32
2022-12-31T19:46:46.452Z,7.65
2022-12-31T19:49:13.849Z,7.80
2022-12-31T19:51:40.881Z,8.75
2022-12-31T19:54:07.917Z,8.05
2022-12-31T19:56:34.712Z,10.93
2022-12-31T19:59:08.650Z,8.18
2022-12-31T20:01:35.612Z,9.63
2022-12-31T20:04:02.684Z,9.43
2022-12-31T20:06:29.485Z,9.45
2022-12-31T20:08:56.410Z,10.23
2022-12-31T20:11:24.131Z,11.48
2022-12-31T20:13:52.429Z,10.17
2022-12-31T20:16:20.476Z,9.75
2022-12-31T20:18:47.627Z,12.85
2022-12-31T20:21:17.901Z,9.65
2022-12-31T20:23:44.844Z,11.80
2022-12-31T20:26:11.691Z,8.00
2022-12-31T20:28:38.772Z,9.20
2022-12-31T20:31:09.653Z,12.13
2022-12-31T20:33:36.511Z,11.88
2022-12-31T20:36:04.637Z,11.43
2022-12-31T20:38:32.159Z,11.57
2022-12-31T20:41:09.494Z,12.13
2022-12-31T20:43:36.650Z,11.15
2022-12-31T20:46:15.182Z,10.95
2022-12-31T20:48:43.220Z,10.95
2022-12-31T20:51:10.053Z,14.30
2022-12-31T20:53:36.849Z,13.65
2022-12-31T20:56:07.707Z,13.02
2022-12-31T20:58:34.816Z,10.82
2022-12-31T21:01:01.838Z,10.57
2022-12-31T21:04:03.657Z,8.50
2022-12-31T21:06:15.779Z,10.55
2022-12-31T21:08:42.654Z,7.63
2022-12-31T21:11:28.403Z,12.23
2022-12-31T21:13:56.042Z,6.93
2022-12-31T21:16:23.020Z,110.60
2022-12-31T21:18:49.868Z,46.53
2022-12-31T21:21:16.792Z,93.43
2022-12-31T21:23:43.604Z,14.27
2022-12-31T21:26:10.420Z,11.85
2022-12-31T21:28:37.235Z,156.80
2022-12-31T21:31:06.280Z,52.15
2022-12-31T21:33:33.154Z,33.05
2022-12-31T21:36:04.446Z,28.35
2022-12-31T21:38:31.892Z,12.75
2022-12-31T21:41:02.985Z,12.87
2022-12-31T21:43:29.891Z,15.27
2022-12-31T21:46:03.848Z,18.40
2022-12-31T21:48:30.851Z,14.85
2022-12-31T21:51:13.002Z,18.83
2022-12-31T21:53:40.299Z,12.97
2022-12-31T21:56:11.652Z,12.38
2022-12-31T21:58:40.202Z,13.75
2022-12-31T22:01:25.594Z,13.68
2022-12-31T22:03:52.510Z,11.13
2022-12-31T22:06:23.069Z,13.63
2022-12-31T22:08:54.121Z,12.07
2022-12-31T22:11:22.171Z,11.32
2022-12-31T22:13:49.122Z,11.13
2022-12-31T22:16:17.299Z,13.48
2022-12-31T22:18:44.510Z,12.43
2022-12-31T22:21:18.850Z,8.80
2022-12-31T22:23:47.897Z,10.88
2022-12-31T22:26:15.473Z,8.60
2022-12-31T22:28:43.138Z,10.60
2022-12-31T22:31:13.690Z,11.40
2022-12-31T22:33:40.569Z,13.30
2022-12-31T22:36:09.994Z,10.70
2022-12-31T22:38:36.809Z,9.10
2022-12-31T22:41:08.231Z,8.88
2022-12-31T22:43:36.409Z,8.40
2022-12-31T22:46:10.345Z,12.00
2022-12-31T22:48:37.763Z,8.77
2022-12-31T22:51:04.828Z,8.95
2022-12-31T22:53:31.716Z,9.32
2022-12-31T22:55:58.518Z,9.27
2022-12-31T22:58:25.811Z,10.38
2022-12-31T23:00:52.795Z,13.07
2022-12-31T23:03:19.655Z,21.50
2022-12-31T23:05:53.623Z,44.08
2022-12-31T23:08:23.655Z,76.27
2022-12-31T23:11:06.161Z,151.73
2022-12-31T23:13:58.869Z,190.82
2022-12-31T23:16:45.448Z,222.05
2022-12-31T23:19:30.766Z,239.13
2022-12-31T23:22:16.248Z,268.87
2022-12-31T23:24:43.096Z,275.05
2022-12-31T23:27:10.191Z,279.83
2022-12-31T23:29:46.831Z,225.27
2022-12-31T23:32:17.509Z,215.60
2022-12-31T23:34:45.089Z,156.93
2022-12-31T23:37:15.016Z,153.23
2022-12-31T23:39:42.117Z,118.53
2022-12-31T23:42:08.974Z,100.07
2022-12-31T23:44:35.762Z,94.80
2022-12-31T23:47:02.691Z,89.97
2022-12-31T23:49:30.175Z,88.22
2022-12-31T23:51:57.011Z,69.85
2022-12-31T23:54:23.853Z,73.82
2022-12-31T23:56:50.687Z,64.10
2022-12-31T23:59:18.533Z,64.30
